Terminal Aerodrome Forecast
Issued by NWS Jackson, KY

Home | Current Version | Previous Version | Text Only | Print | Product List | Glossary On
Versions: 1 2 3 4 5 6 7 8 9 10 11 12 13 14 15 16 17 18
000
FTUS43 KJKL 271803 AAA
TAFLOZ
TAF AMD
KLOZ 271803Z 2718/2818 16009G17KT P6SM BKN090
     FM272300 16006KT P6SM BKN080
     FM281000 17005KT P6SM VCSH BKN050
     FM281200 17006KT P6SM -SHRA BKN035 WS020/20035KT
     FM281600 18009G14KT P6SM -SHRA VCTS OVC030CB=

USA.gov is the U.S. government's official web portal to all federal, state and local government web resources and services.